createdAt,value
2019-03-24T00:04:10.409Z,101863.55
2019-03-24T00:06:40.239Z,101871.81
2019-03-24T00:09:10.053Z,101868.33
2019-03-24T00:11:39.908Z,101809.33
2019-03-24T00:14:09.719Z,101860.96
2019-03-24T00:16:39.529Z,101866.65
2019-03-24T00:19:09.363Z,101866.65
2019-03-24T00:21:39.171Z,101877.98
2019-03-24T00:24:08.981Z,101881.05
2019-03-24T00:26:38.812Z,101881.47
2019-03-24T00:29:08.623Z,101873.16
2019-03-24T00:31:38.448Z,101876.19
2019-03-24T00:34:08.266Z,101869.23
2019-03-24T00:36:38.105Z,101870.99
2019-03-24T00:39:08.434Z,101865.75
2019-03-24T00:41:38.234Z,101866.68
2019-03-24T00:44:08.061Z,101877.16
2019-03-24T00:46:37.858Z,101867.99
2019-03-24T00:49:07.661Z,101864.06
2019-03-24T00:51:37.487Z,101855.34
2019-03-24T00:54:07.298Z,101843.59
2019-03-24T00:56:37.106Z,101836.19
2019-03-24T00:59:06.921Z,101840.50
2019-03-24T01:01:36.719Z,101840.50
2019-03-24T01:04:06.544Z,101845.78
2019-03-24T01:06:36.365Z,101844.02
2019-03-24T01:09:46.776Z,101849.23
2019-03-24T01:12:16.648Z,101838.73
2019-03-24T01:15:05.775Z,101846.15
2019-03-24T01:17:35.593Z,101854.45
2019-03-24T01:20:44.527Z,101845.32
2019-03-24T01:26:15.991Z,101851.01
2019-03-24T01:28:45.804Z,101855.38
2019-03-24T01:31:15.611Z,101861.52
2019-03-24T01:33:45.442Z,101851.08
2019-03-24T01:36:15.250Z,101855.48
2019-03-24T01:38:45.077Z,101852.86
2019-03-24T01:41:14.884Z,101856.41
2019-03-24T01:43:44.689Z,101853.41
2019-03-24T01:46:14.503Z,101850.42
2019-03-24T01:48:44.320Z,101851.73
2019-03-24T01:51:14.138Z,101849.10
2019-03-24T01:53:43.983Z,101849.55
2019-03-24T01:56:13.794Z,101852.20
2019-03-24T01:58:43.642Z,101849.61
2019-03-24T02:01:13.447Z,101846.99
2019-03-24T02:03:43.259Z,101852.26
2019-03-24T02:06:13.084Z,101859.24
2019-03-24T02:08:42.874Z,101861.86
2019-03-24T02:11:12.704Z,101854.48
2019-03-24T02:13:42.509Z,101847.06
2019-03-24T02:16:12.321Z,101843.16
2019-03-24T02:18:42.140Z,101837.48
2019-03-24T02:21:11.948Z,101843.55
2019-03-24T02:23:41.766Z,101851.39
2019-03-24T02:26:11.585Z,101853.16
2019-03-24T02:28:41.396Z,101853.53
2019-03-24T02:31:11.219Z,101858.33
2019-03-24T02:33:41.029Z,101853.95
2019-03-24T02:36:10.832Z,101848.72
2019-03-24T02:38:40.657Z,101846.13
2019-03-24T02:41:10.459Z,101833.05
2019-03-24T02:43:40.277Z,101838.76
2019-03-24T02:48:58.886Z,101835.66
2019-03-24T02:51:28.712Z,101831.32
2019-03-24T02:53:58.510Z,101829.63
2019-03-24T02:56:28.323Z,101836.62
2019-03-24T02:58:58.125Z,101833.14
2019-03-24T03:01:27.945Z,101838.82
2019-03-24T03:03:57.759Z,101830.53
2019-03-24T03:06:27.604Z,101837.08
2019-03-24T03:08:57.427Z,101844.47
2019-03-24T03:11:27.243Z,101838.34
2019-03-24T03:13:57.079Z,101836.16
2019-03-24T03:16:37.843Z,101828.70
2019-03-24T03:18:58.470Z,101825.23
2019-03-24T03:21:28.298Z,101824.81
2019-03-24T03:23:58.152Z,101824.39
2019-03-24T03:26:27.997Z,101815.66
2019-03-24T03:28:57.824Z,101817.34
2019-03-24T03:31:27.674Z,101811.28
2019-03-24T03:33:57.489Z,101813.45
2019-03-24T03:36:27.395Z,101820.47
2019-03-24T03:38:57.237Z,101825.23
2019-03-24T03:41:27.064Z,101819.96
2019-03-24T03:43:56.948Z,101821.23
2019-03-24T03:46:26.749Z,101819.06
2019-03-24T03:48:56.565Z,101822.55
2019-03-24T03:51:26.399Z,101819.91
2019-03-24T03:53:58.898Z,101816.45
2019-03-24T03:56:27.777Z,101817.27
2019-03-24T03:58:57.566Z,101819.83
2019-03-24T04:01:27.430Z,101824.20
2019-03-24T04:03:57.239Z,101819.80
2019-03-24T04:06:27.075Z,101821.59
2019-03-24T04:08:56.891Z,101815.88
2019-03-24T04:11:26.726Z,101806.70
2019-03-24T04:13:56.535Z,101799.75
2019-03-24T04:16:26.352Z,101796.23
2019-03-24T04:18:56.169Z,101800.16
2019-03-24T04:21:26.020Z,101803.27
2019-03-24T04:24:14.662Z,101801.95
2019-03-24T04:26:44.485Z,101800.19
2019-03-24T04:29:14.289Z,101798.45
2019-03-24T04:34:19.170Z,101791.04
2019-03-24T04:36:48.992Z,101785.36
2019-03-24T04:39:18.815Z,101783.19
2019-03-24T04:41:48.622Z,101778.44
2019-03-24T04:44:18.451Z,101777.97
2019-03-24T04:46:48.270Z,101763.18
2019-03-24T04:49:18.094Z,101771.03
2019-03-24T04:51:47.931Z,101764.48
2019-03-24T04:54:17.741Z,101764.47
2019-03-24T04:56:47.569Z,101752.67
2019-03-24T04:59:17.399Z,101760.11
2019-03-24T05:01:47.244Z,101757.50
2019-03-24T05:04:17.058Z,101754.88
2019-03-24T05:07:25.931Z,101755.29
2019-03-24T05:09:55.768Z,101755.29
2019-03-24T05:12:25.577Z,101751.74
2019-03-24T05:14:55.394Z,101756.94
2019-03-24T05:17:27.359Z,101744.31
2019-03-24T05:19:56.792Z,101749.09
2019-03-24T05:22:26.636Z,101748.26
2019-03-24T05:24:56.443Z,101743.44
2019-03-24T05:27:26.293Z,101749.13
2019-03-24T05:29:56.105Z,101753.91
2019-03-24T05:32:25.936Z,101758.71
2019-03-24T05:34:55.759Z,101757.80
2019-03-24T05:37:25.579Z,101760.38
2019-03-24T05:39:55.418Z,101765.17
2019-03-24T05:42:25.238Z,101776.91
2019-03-24T05:44:55.083Z,101776.42
2019-03-24T05:47:24.935Z,101775.08
2019-03-24T05:49:54.746Z,101785.96
2019-03-24T05:52:24.586Z,101785.51
2019-03-24T05:54:54.387Z,101790.67
2019-03-24T05:57:24.222Z,101787.16
2019-03-24T05:59:54.034Z,101783.19
2019-03-24T06:02:23.841Z,101785.38
2019-03-24T06:04:53.672Z,101784.45
2019-03-24T06:07:23.486Z,101786.23
2019-03-24T06:09:53.321Z,101767.88
2019-03-24T06:12:23.127Z,101749.55
2019-03-24T06:14:52.963Z,101760.84
2019-03-24T06:17:22.794Z,101759.52
2019-03-24T06:19:52.626Z,101767.80
2019-03-24T06:22:22.454Z,101762.49
2019-03-24T06:24:52.329Z,101754.57
2019-03-24T06:27:22.171Z,101758.41
2019-03-24T06:29:52.019Z,101750.97
2019-03-24T06:32:21.896Z,101753.54
2019-03-24T06:34:51.723Z,101753.03
2019-03-24T06:37:21.581Z,101758.65
2019-03-24T06:39:51.410Z,101751.56
2019-03-24T06:42:21.244Z,101751.48
2019-03-24T06:44:51.088Z,101746.17
2019-03-24T06:47:20.915Z,101747.86
2019-03-24T06:49:50.742Z,101746.47
2019-03-24T06:52:20.672Z,101745.95
2019-03-24T06:54:50.498Z,101742.00
2019-03-24T06:57:20.341Z,101738.87
2019-03-24T07:02:39.022Z,101731.36
2019-03-24T07:08:18.132Z,101740.28
2019-03-24T07:10:47.951Z,101744.47
2019-03-24T07:13:17.850Z,101735.67
2019-03-24T07:15:47.717Z,101730.70
2019-03-24T07:18:17.587Z,101732.67
2019-03-24T07:20:47.440Z,101723.79
2019-03-24T07:23:17.247Z,101721.45
2019-03-24T07:25:47.073Z,101723.11
2019-03-24T07:28:16.896Z,101715.67
2019-03-24T07:30:46.729Z,101717.83
2019-03-24T07:33:16.550Z,101713.80
2019-03-24T07:35:46.386Z,101711.61
2019-03-24T07:38:16.226Z,101716.74
2019-03-24T07:40:46.034Z,101710.23
2019-03-24T07:43:15.867Z,101710.11
2019-03-24T07:45:45.696Z,101716.11
2019-03-24T07:48:19.415Z,101707.33
2019-03-24T07:50:47.110Z,101698.41
2019-03-24T07:53:17.076Z,101695.75
2019-03-24T07:55:46.902Z,101701.37
2019-03-24T07:58:16.746Z,101695.88
2019-03-24T08:00:46.573Z,101695.48
2019-03-24T08:03:16.419Z,101689.17
2019-03-24T08:05:46.266Z,101694.83
2019-03-24T08:08:16.101Z,101700.70
2019-03-24T08:10:45.971Z,101694.30
2019-03-24T08:13:15.858Z,101696.11
2019-03-24T08:16:04.394Z,101695.70
2019-03-24T08:18:34.221Z,101690.02
2019-03-24T08:21:04.305Z,101696.45
2019-03-24T08:23:34.167Z,101681.08
2019-03-24T08:26:04.015Z,101684.36
2019-03-24T08:28:33.856Z,101685.91
2019-03-24T08:31:03.693Z,101678.38
2019-03-24T08:33:33.543Z,101675.75
2019-03-24T08:36:03.385Z,101670.87
2019-03-24T08:38:33.237Z,101672.39
2019-03-24T08:41:03.144Z,101677.03
2019-03-24T08:43:34.738Z,101667.70
2019-03-24T08:46:04.577Z,101659.61
2019-03-24T08:48:40.962Z,101657.37
2019-03-24T08:51:06.114Z,101648.84
2019-03-24T08:53:35.970Z,101657.09
2019-03-24T08:56:05.790Z,101652.72
2019-03-24T08:58:35.622Z,101652.56
2019-03-24T09:01:05.444Z,101644.20
2019-03-24T09:03:54.229Z,101655.81
2019-03-24T09:06:26.243Z,101656.72
2019-03-24T09:08:56.144Z,101653.28
2019-03-24T09:11:44.745Z,101644.84
2019-03-24T09:14:14.581Z,101645.56
2019-03-24T09:16:44.448Z,101643.37
2019-03-24T09:19:14.308Z,101645.28
2019-03-24T09:21:44.181Z,101639.74
2019-03-24T09:24:14.011Z,101634.15
2019-03-24T09:26:43.907Z,101629.72
2019-03-24T09:29:13.759Z,101630.52
2019-03-24T09:31:43.578Z,101631.52
2019-03-24T09:34:13.534Z,101616.64
2019-03-24T09:36:43.384Z,101627.42
2019-03-24T09:39:13.255Z,101629.93
2019-03-24T09:41:43.148Z,101623.71
2019-03-24T09:47:25.560Z,101619.36
2019-03-24T09:49:55.445Z,101619.36
2019-03-24T09:52:25.295Z,101613.09
2019-03-24T09:54:55.237Z,101596.97
2019-03-24T09:57:25.132Z,101599.69
2019-03-24T09:59:54.976Z,101590.79
2019-03-24T10:02:24.861Z,101589.16
2019-03-24T10:04:55.048Z,101592.75
2019-03-24T10:07:26.269Z,101584.64
2019-03-24T10:10:14.928Z,101584.24
2019-03-24T10:12:56.113Z,101585.08
2019-03-24T10:18:18.122Z,101573.50
2019-03-24T10:20:47.973Z,101573.50
2019-03-24T10:23:36.515Z,101581.70
2019-03-24T10:26:25.112Z,101582.61
2019-03-24T10:28:55.065Z,101582.61
2019-03-24T10:31:43.658Z,101583.27
2019-03-24T10:34:13.493Z,101580.21
2019-03-24T10:36:43.307Z,101574.73
2019-03-24T10:39:13.106Z,101568.02
2019-03-24T10:41:42.940Z,101544.53
2019-03-24T10:44:31.542Z,101556.58
2019-03-24T10:47:01.488Z,101556.58
2019-03-24T10:49:38.673Z,101543.56
2019-03-24T10:52:08.539Z,101532.75
2019-03-24T10:54:38.340Z,101529.09
2019-03-24T10:57:08.175Z,101527.59
2019-03-24T10:59:38.004Z,101524.37
2019-03-24T11:02:07.860Z,101526.58
2019-03-24T11:04:37.677Z,101511.20
2019-03-24T11:07:26.284Z,101496.47
2019-03-24T11:10:14.885Z,101497.23
2019-03-24T11:12:44.700Z,101497.23
2019-03-24T11:15:53.579Z,101492.11
2019-03-24T11:18:23.406Z,101493.12
2019-03-24T11:20:53.239Z,101480.26
2019-03-24T11:23:23.101Z,101469.28
2019-03-24T11:25:52.920Z,101462.80
2019-03-24T11:28:22.863Z,101474.55
2019-03-24T11:30:52.891Z,101470.50
2019-03-24T11:33:22.803Z,101460.27
2019-03-24T11:35:52.715Z,101457.41
2019-03-24T11:38:22.671Z,101457.96
2019-03-24T11:40:52.619Z,101450.22
2019-03-24T11:43:22.525Z,101448.50
2019-03-24T11:45:52.414Z,101445.39
2019-03-24T11:48:22.345Z,101444.55
2019-03-24T11:50:52.304Z,101436.31
2019-03-24T11:53:22.356Z,101430.16
2019-03-24T11:55:52.305Z,101425.78
2019-03-24T11:58:22.237Z,101424.13
2019-03-24T12:00:52.336Z,101409.17
2019-03-24T12:03:22.236Z,101403.73
2019-03-24T12:05:52.199Z,101407.19
2019-03-24T12:08:23.309Z,101404.72
2019-03-24T12:10:53.394Z,101405.45
2019-03-24T12:13:23.494Z,101396.75
2019-03-24T12:15:53.438Z,101392.26
2019-03-24T12:18:23.390Z,101377.91
2019-03-24T12:20:53.347Z,101383.33
2019-03-24T12:23:23.329Z,101370.44
2019-03-24T12:25:53.347Z,101369.84
2019-03-24T12:28:23.306Z,101368.30
2019-03-24T12:30:53.360Z,101368.69
2019-03-24T12:33:23.336Z,101353.67
2019-03-24T12:35:53.335Z,101353.16
2019-03-24T12:38:23.418Z,101347.34
2019-03-24T12:40:53.441Z,101336.29
2019-03-24T12:43:23.409Z,101323.28
2019-03-24T12:45:53.914Z,101320.64
2019-03-24T12:48:24.064Z,101318.30
2019-03-24T12:50:54.007Z,101314.77
2019-03-24T12:53:24.031Z,101304.56
2019-03-24T12:55:54.000Z,101308.74
2019-03-24T12:58:23.949Z,101297.98
2019-03-24T13:00:53.894Z,101292.23
2019-03-24T13:03:23.859Z,101279.30
2019-03-24T13:05:53.795Z,101276.61
2019-03-24T13:08:23.770Z,101267.08
2019-03-24T13:10:53.776Z,101268.63
2019-03-24T13:13:23.710Z,101270.75
2019-03-24T13:15:53.712Z,101260.60
2019-03-24T13:18:23.738Z,101258.45
2019-03-24T13:20:53.656Z,101255.17
2019-03-24T13:23:23.658Z,101250.44
2019-03-24T13:25:53.651Z,101254.84
2019-03-24T13:28:23.642Z,101254.50
2019-03-24T13:30:53.609Z,101247.72
2019-03-24T13:33:23.601Z,101234.43
2019-03-24T13:41:37.242Z,101217.70
2019-03-24T13:44:07.272Z,101201.48
2019-03-24T13:46:37.217Z,101211.84
2019-03-24T13:49:07.278Z,101198.97
2019-03-24T13:51:37.260Z,101200.50
2019-03-24T13:54:07.225Z,101201.45
2019-03-24T13:56:37.160Z,101191.45
2019-03-24T13:59:07.111Z,101205.66
2019-03-24T14:01:37.006Z,101205.67
2019-03-24T14:04:06.999Z,101202.02
2019-03-24T14:06:36.934Z,101203.09
2019-03-24T14:09:09.679Z,101198.23
2019-03-24T14:14:28.703Z,101182.09
2019-03-24T14:16:58.803Z,101177.48
2019-03-24T14:19:28.756Z,101160.89
2019-03-24T14:22:37.710Z,101162.60
2019-03-24T14:28:17.214Z,101158.27
2019-03-24T14:30:48.231Z,101152.71
2019-03-24T14:33:18.365Z,101136.52
2019-03-24T14:35:48.679Z,101135.73
2019-03-24T14:38:18.665Z,100867.81
2019-03-24T14:40:48.599Z,101128.73
2019-03-24T14:43:18.589Z,101125.13
2019-03-24T14:45:48.583Z,101123.30
2019-03-24T14:48:18.618Z,101115.60
2019-03-24T14:50:54.504Z,101103.24
2019-03-24T14:53:20.378Z,101115.22
2019-03-24T14:55:50.364Z,101100.08
2019-03-24T14:58:20.340Z,101097.25
2019-03-24T15:00:50.463Z,101094.82
2019-03-24T15:03:20.579Z,101085.30
2019-03-24T15:05:50.553Z,101081.36
2019-03-24T15:08:20.600Z,101084.95
2019-03-24T15:10:50.594Z,101074.44
2019-03-24T15:13:20.711Z,101063.88
2019-03-24T15:15:50.764Z,101064.28
2019-03-24T15:18:39.467Z,101062.37
2019-03-24T15:21:11.393Z,101043.11
2019-03-24T15:23:41.152Z,101040.33
2019-03-24T15:26:11.204Z,101035.44
2019-03-24T15:28:41.435Z,101031.62
2019-03-24T15:31:11.429Z,101028.69
2019-03-24T15:33:41.516Z,101023.03
2019-03-24T15:36:11.564Z,101019.54
2019-03-24T15:38:41.600Z,101012.84
2019-03-24T15:41:11.617Z,101005.22
2019-03-24T15:43:41.575Z,101003.96
2019-03-24T15:46:11.495Z,101004.67
2019-03-24T15:48:41.487Z,100997.81
2019-03-24T15:51:16.727Z,100993.53
2019-03-24T15:53:43.110Z,100983.72
2019-03-24T15:58:49.022Z,100977.36
2019-03-24T16:01:19.002Z,100972.47
2019-03-24T16:03:49.058Z,100970.15
2019-03-24T16:06:18.974Z,100962.06
2019-03-24T16:08:48.997Z,100955.74
2019-03-24T16:11:19.016Z,100951.86
2019-03-24T16:13:49.460Z,100946.21
2019-03-24T16:16:19.406Z,100935.41
2019-03-24T16:19:08.077Z,100932.27
2019-03-24T16:21:38.007Z,100932.05
2019-03-24T16:24:07.911Z,100930.64
2019-03-24T16:26:37.872Z,100932.66
2019-03-24T16:31:58.361Z,100930.34
2019-03-24T16:34:28.284Z,100925.91
2019-03-24T16:36:58.250Z,100924.99
2019-03-24T16:39:28.319Z,100924.59
2019-03-24T16:41:58.272Z,100916.41
2019-03-24T16:44:28.195Z,100918.19
2019-03-24T16:46:58.227Z,100901.28
2019-03-24T16:49:28.296Z,100903.53
2019-03-24T16:51:58.236Z,100900.33
2019-03-24T16:54:29.064Z,100906.31
2019-03-24T16:56:59.108Z,100891.59
2019-03-24T17:02:18.000Z,100878.46
2019-03-24T17:04:48.017Z,100878.46
2019-03-24T17:07:18.030Z,100876.81
2019-03-24T17:09:48.002Z,100879.59
2019-03-24T17:12:17.930Z,100880.62
2019-03-24T17:14:48.144Z,100873.84
2019-03-24T17:17:18.095Z,100876.91
2019-03-24T17:19:47.999Z,100879.75
2019-03-24T17:22:18.097Z,100868.48
2019-03-24T17:24:48.138Z,100888.36
2019-03-24T17:27:18.430Z,100886.19
2019-03-24T17:29:48.310Z,100874.94
2019-03-24T17:32:18.264Z,100862.92
2019-03-24T17:34:48.188Z,100848.09
2019-03-24T17:37:18.092Z,100842.85
2019-03-24T17:39:48.154Z,100850.83
2019-03-24T17:42:18.117Z,100836.83
2019-03-24T17:44:48.134Z,100830.67
2019-03-24T17:47:18.027Z,100836.00
2019-03-24T17:49:47.940Z,100830.05
2019-03-24T17:52:17.947Z,100821.64
2019-03-24T17:54:47.850Z,100814.16
2019-03-24T17:57:20.117Z,100810.63
2019-03-24T17:59:50.073Z,100805.88
2019-03-24T18:02:19.957Z,100807.19
2019-03-24T18:04:49.886Z,100804.66
2019-03-24T18:07:19.861Z,100803.87
2019-03-24T18:09:49.812Z,100797.81
2019-03-24T18:12:19.794Z,100785.72
2019-03-24T18:14:49.759Z,100787.42
2019-03-24T18:17:19.681Z,100775.24
2019-03-24T18:19:49.640Z,100777.77
2019-03-24T18:22:19.539Z,100778.98
2019-03-24T18:24:49.455Z,100766.78
2019-03-24T18:27:19.368Z,100765.07
2019-03-24T18:29:49.298Z,100762.15
2019-03-24T18:32:19.293Z,100761.23
2019-03-24T18:35:08.325Z,100761.14
2019-03-24T18:37:38.233Z,100754.99
2019-03-24T18:43:04.778Z,100745.83
2019-03-24T18:45:53.333Z,100744.03
2019-03-24T18:48:23.238Z,100745.64
2019-03-24T18:50:53.099Z,100742.53
2019-03-24T18:53:22.995Z,100749.66
2019-03-24T18:55:52.923Z,100738.31
2019-03-24T18:58:22.812Z,100733.95
2019-03-24T19:00:52.766Z,100736.95
2019-03-24T19:03:22.668Z,100724.34
2019-03-24T19:05:52.788Z,100722.08
2019-03-24T19:08:22.718Z,100718.97
2019-03-24T19:10:52.686Z,100714.64
2019-03-24T19:13:22.681Z,100719.75
2019-03-24T19:15:52.718Z,100707.97
2019-03-24T19:18:22.620Z,100701.55
2019-03-24T19:20:53.617Z,100700.77
2019-03-24T19:23:23.575Z,100692.43
2019-03-24T19:25:53.528Z,100691.95
2019-03-24T19:28:23.458Z,100678.08
2019-03-24T19:30:53.409Z,100671.09
2019-03-24T19:33:23.463Z,100674.23
2019-03-24T19:35:53.476Z,100671.15
2019-03-24T19:38:43.769Z,100671.20
2019-03-24T19:41:13.764Z,100662.45
2019-03-24T19:43:44.010Z,100659.74
2019-03-24T19:46:14.129Z,100654.50
2019-03-24T19:48:44.204Z,100649.27
2019-03-24T19:51:14.189Z,100527.64
2019-03-24T19:53:44.824Z,100640.84
2019-03-24T19:56:14.993Z,100636.86
2019-03-24T19:58:45.482Z,100617.61
2019-03-24T20:01:15.543Z,100617.61
2019-03-24T20:03:45.478Z,100608.97
2019-03-24T20:06:15.598Z,100603.73
2019-03-24T20:08:45.739Z,100597.58
2019-03-24T20:11:15.761Z,100593.70
2019-03-24T20:13:45.680Z,100593.30
2019-03-24T20:19:05.266Z,100576.78
2019-03-24T20:21:35.203Z,100582.98
2019-03-24T20:24:05.451Z,100574.20
2019-03-24T20:26:35.394Z,100571.59
2019-03-24T20:29:05.371Z,100564.59
2019-03-24T20:31:35.316Z,100499.39
2019-03-24T20:34:05.253Z,100563.23
2019-03-24T20:36:35.306Z,100560.23
2019-03-24T20:39:25.630Z,100553.16
2019-03-24T20:41:55.629Z,100556.59
2019-03-24T20:44:25.855Z,100543.49
2019-03-24T20:46:55.778Z,100544.70
2019-03-24T20:49:26.125Z,100541.61
2019-03-24T20:51:56.268Z,100530.30
2019-03-24T20:54:26.517Z,100529.27
2019-03-24T20:56:56.443Z,100469.86
2019-03-24T20:59:26.500Z,100514.97
2019-03-24T21:01:56.618Z,100520.50
2019-03-24T21:04:26.606Z,100513.45
2019-03-24T21:06:56.582Z,100503.84
2019-03-24T21:09:26.490Z,100502.98
2019-03-24T21:11:57.049Z,100492.94
2019-03-24T21:14:26.937Z,100490.91
2019-03-24T21:16:57.346Z,100489.06
2019-03-24T21:19:27.269Z,100412.61
2019-03-24T21:22:16.011Z,100469.79
2019-03-24T21:24:46.158Z,100436.28
2019-03-24T21:27:16.097Z,100455.02
2019-03-24T21:29:46.120Z,100453.03
2019-03-24T21:32:16.175Z,100453.42
2019-03-24T21:34:46.428Z,100447.69
2019-03-24T21:37:16.577Z,100432.80
2019-03-24T21:39:46.500Z,100439.83
2019-03-24T21:42:17.130Z,100437.10
2019-03-24T21:44:47.023Z,100434.88
2019-03-24T21:47:17.188Z,100431.33
2019-03-24T21:49:47.085Z,100431.39
2019-03-24T21:54:52.483Z,100420.80
2019-03-24T21:57:22.435Z,100419.91
2019-03-24T21:59:52.620Z,100409.49
2019-03-24T22:02:22.841Z,100401.63
2019-03-24T22:04:52.843Z,100391.16
2019-03-24T22:07:22.871Z,100384.61
2019-03-24T22:09:52.851Z,100382.77
2019-03-24T22:12:22.865Z,100373.20
2019-03-24T22:14:52.814Z,100372.77
2019-03-24T22:17:22.861Z,100367.59
2019-03-24T22:19:52.918Z,100202.55
2019-03-24T22:22:23.125Z,100362.62
2019-03-24T22:24:53.012Z,100355.15
2019-03-24T22:27:23.271Z,100354.70
2019-03-24T22:29:53.257Z,100350.39
2019-03-24T22:32:23.148Z,100340.73
2019-03-24T22:34:53.830Z,100335.56
2019-03-24T22:37:23.799Z,100336.81
2019-03-24T22:39:54.629Z,100327.14
2019-03-24T22:42:24.524Z,100323.59
2019-03-24T22:44:55.065Z,100313.12
2019-03-24T22:47:24.981Z,100317.05
2019-03-24T22:49:55.468Z,100316.66
2019-03-24T22:52:44.156Z,100203.12
2019-03-24T22:58:28.843Z,100300.95
2019-03-24T23:00:58.965Z,100291.39
2019-03-24T23:03:28.968Z,100286.66
2019-03-24T23:05:58.887Z,100281.80
2019-03-24T23:08:28.926Z,100280.91
2019-03-24T23:10:58.907Z,100273.17
2019-03-24T23:13:28.898Z,100277.48
2019-03-24T23:15:58.865Z,100274.48
2019-03-24T23:18:29.138Z,100261.38
2019-03-24T23:20:59.176Z,100260.02
2019-03-24T23:23:29.189Z,100256.41
2019-03-24T23:25:59.121Z,100218.14
2019-03-24T23:28:29.985Z,100243.25
2019-03-24T23:30:59.939Z,100123.93
2019-03-24T23:33:29.813Z,100235.45
2019-03-24T23:35:59.870Z,100226.41
2019-03-24T23:38:29.826Z,100220.73
2019-03-24T23:41:00.018Z,100214.17
2019-03-24T23:43:29.930Z,100211.50
2019-03-24T23:45:59.992Z,100204.95
2019-03-24T23:48:30.052Z,100204.95
2019-03-24T23:51:00.299Z,100200.09
2019-03-24T23:53:30.231Z,100198.66
2019-03-24T23:56:00.357Z,100191.73
2019-03-24T23:58:40.227Z,100125.05
